Time;durP1;ratioP1;P1;durP2;ratioP2;P2;SDS_P1;SDS_P2;PMS_P1;PMS_P2;Temp;Humidity;BMP_temperature;BMP_pressure;BME280_temperature;BME280_humidity;BME280_pressure;Samples;Min_cycle;Max_cycle;Signal;HPM_P1;HPM_P2
2022/03/17 00:02:16;;;;;;;9.73;7.60;;;7.30;99.90;;;;;;5071486;28;20480;-43
2022/03/17 00:04:44;;;;;;;11.63;7.50;;;7.30;99.90;;;;;;5072490;28;20486;-42
2022/03/17 00:07:12;;;;;;;6.83;6.23;;;7.30;99.90;;;;;;5072474;28;20477;-42
2022/03/17 00:09:39;;;;;;;13.20;7.80;;;7.30;99.90;;;;;;5071958;28;20448;-42
2022/03/17 00:12:09;;;;;;;9.20;7.20;;;7.40;99.90;;;;;;5072358;28;20481;-43
2022/03/17 00:14:36;;;;;;;13.40;7.40;;;7.40;99.90;;;;;;5072237;28;20558;-42
2022/03/17 00:17:04;;;;;;;10.83;7.40;;;7.40;99.90;;;;;;5072183;28;20464;-43
2022/03/17 00:19:31;;;;;;;14.50;7.00;;;7.40;99.90;;;;;;5071921;28;20468;-44
2022/03/17 00:21:59;;;;;;;9.10;6.70;;;7.40;99.90;;;;;;5071942;28;20449;-42
2022/03/17 00:24:26;;;;;;;7.10;6.50;;;7.30;99.90;;;;;;5072356;28;20475;-43
2022/03/17 00:26:53;;;;;;;8.83;6.30;;;7.20;99.90;;;;;;5072012;28;20448;-43
2022/03/17 00:29:21;;;;;;;9.37;6.90;;;6.80;99.90;;;;;;5072020;28;20475;-42
2022/03/17 00:31:48;;;;;;;13.60;6.10;;;6.70;99.90;;;;;;5071972;28;20527;-43
2022/03/17 00:34:15;;;;;;;9.60;6.87;;;6.80;99.90;;;;;;5071935;28;20467;-43
2022/03/17 00:36:42;;;;;;;8.20;7.13;;;6.80;99.90;;;;;;5072128;28;20483;-43
2022/03/17 00:39:09;;;;;;;8.13;6.00;;;6.80;99.90;;;;;;5071583;28;20470;-43
2022/03/17 00:41:37;;;;;;;9.43;5.33;;;6.90;99.90;;;;;;5071530;28;20456;-43
2022/03/17 00:44:05;;;;;;;8.23;6.90;;;6.90;99.90;;;;;;5071636;28;21063;-42
2022/03/17 00:46:33;;;;;;;9.80;6.73;;;6.80;99.90;;;;;;5071691;28;20549;-43
2022/03/17 00:49:00;;;;;;;7.07;5.73;;;6.90;99.90;;;;;;5071447;28;20450;-42
2022/03/17 00:51:27;;;;;;;6.50;5.50;;;6.80;99.90;;;;;;5071752;28;20877;-43
2022/03/17 00:53:54;;;;;;;6.60;5.57;;;6.90;99.90;;;;;;5071208;28;20491;-42
2022/03/17 00:56:21;;;;;;;7.73;5.80;;;6.90;99.90;;;;;;5071856;28;20471;-43
2022/03/17 00:58:49;;;;;;;8.10;6.40;;;6.90;99.90;;;;;;5071492;28;20539;-43
2022/03/17 01:01:16;;;;;;;7.10;4.53;;;6.90;99.90;;;;;;5071824;28;20450;-43
2022/03/17 01:03:46;;;;;;;7.43;5.33;;;6.90;99.90;;;;;;5115925;22;20580;-42
2022/03/17 01:06:13;;;;;;;8.80;5.30;;;7.00;99.90;;;;;;5051509;28;20484;-40
2022/03/17 01:08:40;;;;;;;12.47;8.10;;;6.90;99.90;;;;;;5051427;28;20464;-41
2022/03/17 01:11:08;;;;;;;15.47;8.40;;;6.90;99.90;;;;;;5051035;28;20437;-40
2022/03/17 01:13:35;;;;;;;12.50;7.90;;;6.80;99.90;;;;;;5050568;28;20481;-41
2022/03/17 01:16:02;;;;;;;10.40;6.73;;;7.00;99.90;;;;;;5051685;28;20480;-40
2022/03/17 01:18:29;;;;;;;8.00;5.73;;;7.00;99.90;;;;;;5051153;28;20524;-41
2022/03/17 01:20:57;;;;;;;9.07;6.50;;;6.90;99.90;;;;;;5050844;28;20442;-41
2022/03/17 01:23:24;;;;;;;9.87;6.20;;;6.90;99.90;;;;;;5051345;28;20512;-41
2022/03/17 01:25:51;;;;;;;12.43;6.13;;;6.90;99.90;;;;;;5051214;28;20532;-41
2022/03/17 01:28:18;;;;;;;11.47;6.97;;;6.80;99.90;;;;;;5051333;28;20485;-40
2022/03/17 01:30:45;;;;;;;11.73;6.17;;;6.90;99.90;;;;;;5051022;28;20532;-42
2022/03/17 01:33:12;;;;;;;12.57;6.40;;;7.00;99.90;;;;;;5050932;28;20548;-41
2022/03/17 01:35:39;;;;;;;7.50;5.23;;;6.80;99.90;;;;;;5051092;28;20881;-40
2022/03/17 01:38:07;;;;;;;9.20;6.23;;;6.60;99.90;;;;;;5051051;28;20465;-41
2022/03/17 01:40:34;;;;;;;11.13;5.70;;;6.50;99.90;;;;;;5050794;28;20465;-41
2022/03/17 01:43:01;;;;;;;8.20;5.70;;;6.40;99.90;;;;;;5051088;28;20560;-41
2022/03/17 01:45:28;;;;;;;9.93;6.07;;;6.60;99.90;;;;;;5051220;28;20472;-41
2022/03/17 01:47:55;;;;;;;9.47;5.70;;;6.60;99.90;;;;;;5051116;28;20488;-41
2022/03/17 01:50:22;;;;;;;13.50;5.90;;;6.60;99.90;;;;;;5050795;28;20946;-40
2022/03/17 01:52:49;;;;;;;8.60;5.37;;;6.50;99.90;;;;;;5050581;28;20882;-41
2022/03/17 01:55:18;;;;;;;7.80;5.70;;;6.50;99.90;;;;;;5051179;28;20478;-40
2022/03/17 01:57:46;;;;;;;7.87;5.50;;;6.60;99.90;;;;;;5050946;28;20441;-41
2022/03/17 02:00:17;;;;;;;14.27;6.00;;;6.60;99.90;;;;;;5051017;28;20477;-42
2022/03/17 02:02:44;;;;;;;15.07;6.43;;;6.60;99.90;;;;;;5050489;28;20486;-40
2022/03/17 02:05:11;;;;;;;16.73;6.97;;;6.70;99.90;;;;;;5050889;28;21003;-40
2022/03/17 02:07:39;;;;;;;9.03;5.63;;;6.60;99.90;;;;;;5050926;28;20524;-41
2022/03/17 02:10:06;;;;;;;7.70;5.93;;;6.30;99.90;;;;;;5050235;28;20464;-40
2022/03/17 02:15:19;;;;;;;11.20;6.60;;;6.00;99.90;;;;;;5050757;28;20433;-40
2022/03/17 02:17:47;;;;;;;9.00;6.63;;;5.90;99.90;;;;;;5051093;28;20540;-41
2022/03/17 02:20:16;;;;;;;9.67;6.70;;;5.80;99.90;;;;;;5050744;28;20445;-41
2022/03/17 02:22:45;;;;;;;12.10;7.93;;;5.70;99.90;;;;;;5050615;28;20450;-40
2022/03/17 02:28:02;;;;;;;10.70;6.70;;;5.80;99.90;;;;;;5054472;28;20429;-41
2022/03/17 02:30:29;;;;;;;6.77;6.07;;;5.80;99.90;;;;;;5054082;28;20503;-40
2022/03/17 02:33:00;;;;;;;11.60;7.60;;;5.80;99.90;;;;;;5054412;28;20544;-41
2022/03/17 02:35:28;;;;;;;6.80;6.10;;;6.00;99.90;;;;;;5054277;28;20814;-41
2022/03/17 02:37:56;;;;;;;12.13;6.97;;;6.10;99.90;;;;;;5054300;28;20884;-40
2022/03/17 02:40:26;;;;;;;14.57;6.57;;;6.10;99.90;;;;;;5054342;28;20445;-41
2022/03/17 02:42:53;;;;;;;10.53;6.87;;;6.20;99.90;;;;;;5053916;28;20477;-40
2022/03/17 02:45:20;;;;;;;11.07;7.37;;;6.20;99.90;;;;;;5054051;28;20477;-41
2022/03/17 02:47:47;;;;;;;12.57;5.97;;;6.20;99.90;;;;;;5053884;28;20480;-41
2022/03/17 02:50:14;;;;;;;9.43;5.77;;;6.20;99.90;;;;;;5054073;28;20536;-40
2022/03/17 02:52:42;;;;;;;9.93;6.90;;;6.20;99.90;;;;;;5053774;28;20934;-41
2022/03/17 02:55:11;;;;;;;8.40;5.73;;;6.20;99.90;;;;;;5053959;28;20484;-41
2022/03/17 02:57:39;;;;;;;8.17;6.70;;;6.10;99.90;;;;;;5054078;28;20445;-40
2022/03/17 03:00:09;;;;;;;30.03;17.33;;;6.10;99.90;;;;;;5053271;28;20512;-40
2022/03/17 03:02:36;;;;;;;21.63;11.03;;;6.30;99.90;;;;;;5053371;28;20484;-41
2022/03/17 03:05:03;;;;;;;16.40;9.27;;;6.30;99.90;;;;;;5053562;28;20573;-40
2022/03/17 03:07:30;;;;;;;10.13;7.00;;;6.30;99.90;;;;;;5053989;28;20476;-41
2022/03/17 03:09:57;;;;;;;8.60;7.20;;;6.40;99.90;;;;;;5052971;28;20528;-40
2022/03/17 03:12:25;;;;;;;9.10;6.57;;;6.40;99.90;;;;;;5053837;28;20486;-40
2022/03/17 03:14:53;;;;;;;11.40;7.00;;;6.30;99.90;;;;;;5053522;28;21107;-40
2022/03/17 03:17:22;;;;;;;10.10;6.20;;;6.20;99.90;;;;;;5053376;28;20518;-41
2022/03/17 03:19:49;;;;;;;7.97;6.00;;;6.30;99.90;;;;;;5053741;28;20445;-40
2022/03/17 03:22:16;;;;;;;10.23;6.17;;;6.30;99.90;;;;;;5053585;28;20528;-40
2022/03/17 03:24:43;;;;;;;11.67;6.17;;;6.30;99.90;;;;;;5053293;28;20989;-40
2022/03/17 03:27:10;;;;;;;8.73;6.00;;;6.40;99.90;;;;;;5053212;28;20480;-41
2022/03/17 03:29:37;;;;;;;13.77;6.47;;;6.20;99.90;;;;;;5052975;28;20553;-41
2022/03/17 03:32:06;;;;;;;9.83;6.60;;;6.00;99.90;;;;;;5053509;28;20475;-41
2022/03/17 03:34:34;;;;;;;9.97;6.83;;;5.90;99.90;;;;;;5053127;28;20540;-40
2022/03/17 03:39:45;;;;;;;11.43;6.57;;;6.00;99.90;;;;;;5052635;28;20786;-42
2022/03/17 03:42:12;;;;;;;10.57;6.60;;;6.10;99.90;;;;;;5053067;28;20473;-41
2022/03/17 03:44:40;;;;;;;11.83;5.53;;;6.20;99.90;;;;;;5053104;28;20517;-43
2022/03/17 03:47:09;;;;;;;8.80;5.30;;;6.30;99.90;;;;;;5053192;28;20469;-41
2022/03/17 03:49:38;;;;;;;11.10;5.83;;;6.30;99.90;;;;;;5053016;28;20483;-42
2022/03/17 03:52:06;;;;;;;10.10;6.17;;;6.20;99.90;;;;;;5053011;28;20445;-40
2022/03/17 03:54:33;;;;;;;13.67;5.70;;;6.00;99.90;;;;;;5052873;28;20489;-40
2022/03/17 03:57:00;;;;;;;11.50;5.60;;;5.90;99.90;;;;;;5052831;28;20532;-40
2022/03/17 03:59:29;;;;;;;11.20;6.13;;;5.70;99.90;;;;;;5052485;28;20528;-41
2022/03/17 04:01:58;;;;;;;16.50;6.90;;;5.80;99.90;;;;;;5052891;28;20456;-40
2022/03/17 04:04:28;;;;;;;10.07;6.57;;;5.80;99.90;;;;;;5052466;28;20580;-41
2022/03/17 04:06:56;;;;;;;10.00;5.40;;;5.90;99.90;;;;;;5052821;28;20488;-40
2022/03/17 04:09:25;;;;;;;13.33;5.73;;;6.00;99.90;;;;;;5052037;28;20446;-40
2022/03/17 04:11:53;;;;;;;9.83;5.50;;;6.00;99.90;;;;;;5052631;28;20874;-40
2022/03/17 04:14:20;;;;;;;17.77;6.43;;;6.10;99.90;;;;;;5052416;28;20492;-41
2022/03/17 04:16:47;;;;;;;14.53;5.97;;;6.10;99.90;;;;;;5052528;28;20480;-40
2022/03/17 04:19:15;;;;;;;9.90;5.43;;;6.10;99.90;;;;;;5052146;28;20886;-40
2022/03/17 04:21:45;;;;;;;21.30;6.30;;;6.10;99.90;;;;;;5052175;28;20456;-41
2022/03/17 04:24:12;;;;;;;14.73;6.03;;;6.00;99.90;;;;;;5052461;28;20572;-41
2022/03/17 04:26:39;;;;;;;12.03;7.00;;;6.00;99.90;;;;;;5052458;28;20496;-41
2022/03/17 04:29:06;;;;;;;14.80;6.07;;;6.10;99.90;;;;;;5051933;28;20474;-40
2022/03/17 04:31:34;;;;;;;8.93;5.90;;;6.20;99.90;;;;;;5052047;28;20441;-40
2022/03/17 04:34:01;;;;;;;9.53;5.67;;;6.00;99.90;;;;;;5051901;28;20473;-41
2022/03/17 04:36:28;;;;;;;13.00;6.53;;;5.70;99.90;;;;;;5051815;28;20485;-40
2022/03/17 04:38:56;;;;;;;13.03;6.53;;;5.40;99.90;;;;;;5052130;28;20524;-43
2022/03/17 04:41:23;;;;;;;10.23;5.73;;;5.10;99.90;;;;;;5051559;28;20481;-41
2022/03/17 04:43:50;;;;;;;11.73;7.10;;;5.20;99.90;;;;;;5051862;28;20560;-41
2022/03/17 04:46:17;;;;;;;17.07;6.20;;;5.20;99.90;;;;;;5051772;28;20942;-42
2022/03/17 04:48:45;;;;;;;16.30;7.20;;;5.50;99.90;;;;;;5051529;28;20489;-40
2022/03/17 04:51:12;;;;;;;14.53;7.50;;;5.60;99.90;;;;;;5051513;28;21016;-41
2022/03/17 04:53:39;;;;;;;10.40;7.10;;;5.60;99.90;;;;;;5051965;28;20498;-40
2022/03/17 04:56:09;;;;;;;8.57;6.00;;;5.50;99.90;;;;;;5051931;28;20491;-40
2022/03/17 04:58:37;;;;;;;14.63;5.73;;;5.30;99.90;;;;;;5051915;28;20473;-40
2022/03/17 05:01:05;;;;;;;12.80;7.53;;;5.30;99.90;;;;;;5051468;28;20484;-41
2022/03/17 05:03:33;;;;;;;15.70;6.20;;;5.30;99.90;;;;;;5051051;28;20542;-40
2022/03/17 05:06:00;;;;;;;15.53;7.07;;;5.40;99.90;;;;;;5051873;28;20453;-41
2022/03/17 05:08:27;;;;;;;25.00;18.33;;;5.50;99.90;;;;;;5051831;28;20477;-40
2022/03/17 05:10:54;;;;;;;27.70;24.70;;;5.60;99.90;;;;;;5051448;28;20880;-40
2022/03/17 05:13:24;;;;;;;28.33;18.53;;;5.70;99.90;;;;;;5051559;28;20488;-41
2022/03/17 05:15:52;;;;;;;15.33;8.40;;;5.80;99.90;;;;;;5051863;28;20504;-40
2022/03/17 05:18:19;;;;;;;16.80;7.93;;;5.80;99.90;;;;;;5052125;28;20477;-40
2022/03/17 05:20:47;;;;;;;12.60;5.90;;;5.90;99.90;;;;;;5051619;28;20449;-41
2022/03/17 05:23:16;;;;;;;24.00;7.50;;;6.00;99.90;;;;;;5052143;28;20499;-41
2022/03/17 05:25:44;;;;;;;17.77;13.53;;;6.00;99.90;;;;;;5051493;28;20509;-40
2022/03/17 05:28:12;;;;;;;17.27;12.23;;;6.00;99.90;;;;;;5051513;28;20524;-40
2022/03/17 05:30:42;;;;;;;23.97;8.87;;;6.00;99.90;;;;;;5052068;28;20452;-40
2022/03/17 05:33:10;;;;;;;13.83;7.50;;;5.90;99.90;;;;;;5051774;28;20898;-40
2022/03/17 05:35:38;;;;;;;25.00;9.57;;;5.90;99.90;;;;;;5051743;28;21012;-40
2022/03/17 05:38:05;;;;;;;17.07;9.43;;;5.80;99.90;;;;;;5051675;28;20472;-41
2022/03/17 05:40:33;;;;;;;15.97;8.13;;;5.90;99.90;;;;;;5051322;28;20484;-40
2022/03/17 05:43:02;;;;;;;15.20;6.90;;;5.90;99.90;;;;;;5051975;28;20493;-40
2022/03/17 05:45:29;;;;;;;14.83;6.53;;;5.90;99.90;;;;;;5051940;28;20949;-40
2022/03/17 05:47:59;;;;;;;34.83;8.30;;;5.90;99.90;;;;;;5052059;28;20495;-40
2022/03/17 05:50:27;;;;;;;18.87;7.80;;;5.80;99.90;;;;;;5051566;28;20473;-41
2022/03/17 05:52:54;;;;;;;26.40;8.73;;;5.70;99.90;;;;;;5051816;28;20499;-41
2022/03/17 05:55:24;;;;;;;23.00;8.20;;;5.70;99.90;;;;;;5052045;28;20457;-40
2022/03/17 05:57:52;;;;;;;16.47;7.97;;;5.50;99.90;;;;;;5051837;28;20473;-41
2022/03/17 06:00:23;;;;;;;14.73;7.90;;;5.40;99.90;;;;;;5054045;28;20524;-40
2022/03/17 06:02:50;;;;;;;13.10;7.63;;;5.30;99.90;;;;;;5054538;28;20744;-40
2022/03/17 06:05:19;;;;;;;13.30;8.23;;;5.00;99.90;;;;;;5054939;28;20564;-40
2022/03/17 06:07:48;;;;;;;15.73;8.27;;;4.80;99.90;;;;;;5054729;28;20859;-40
2022/03/17 06:10:16;;;;;;;15.53;8.40;;;4.80;99.90;;;;;;5054318;28;20494;-40
2022/03/17 06:12:44;;;;;;;17.20;9.10;;;4.90;99.90;;;;;;5054357;28;20480;-41
2022/03/17 06:15:12;;;;;;;15.83;7.80;;;4.90;99.90;;;;;;5054332;28;20438;-41
2022/03/17 06:17:40;;;;;;;17.50;7.90;;;5.20;99.90;;;;;;5054869;28;20464;-42
2022/03/17 06:20:09;;;;;;;12.53;7.30;;;5.40;99.90;;;;;;5054423;28;20528;-41
2022/03/17 06:22:39;;;;;;;12.37;6.87;;;5.50;99.90;;;;;;5054381;28;20958;-40
2022/03/17 06:25:08;;;;;;;14.90;8.97;;;5.70;99.90;;;;;;5054406;28;20560;-40
2022/03/17 06:27:35;;;;;;;19.93;8.17;;;5.90;99.90;;;;;;5054452;28;20503;-41
2022/03/17 06:30:03;;;;;;;15.23;8.77;;;6.00;99.90;;;;;;5054024;28;20930;-40
2022/03/17 06:32:30;;;;;;;14.43;8.13;;;6.10;99.90;;;;;;5054497;28;20480;-41
2022/03/17 06:34:57;;;;;;;17.23;9.17;;;6.20;99.90;;;;;;5054375;28;21002;-41
2022/03/17 06:37:24;;;;;;;19.57;10.03;;;6.20;99.90;;;;;;5054232;28;20503;-41
2022/03/17 06:39:53;;;;;;;12.37;8.37;;;6.00;99.90;;;;;;5054038;28;20488;-41
2022/03/17 06:42:20;;;;;;;26.50;10.07;;;6.00;99.90;;;;;;5054075;28;20950;-40
2022/03/17 06:44:47;;;;;;;12.80;9.73;;;6.10;99.90;;;;;;5054184;28;20575;-41
2022/03/17 06:47:14;;;;;;;14.03;10.13;;;5.90;99.90;;;;;;5054372;28;20859;-40
2022/03/17 06:49:41;;;;;;;18.67;9.70;;;5.80;99.90;;;;;;5054254;28;20468;-41
2022/03/17 06:52:08;;;;;;;18.47;9.73;;;5.80;99.90;;;;;;5054110;28;20481;-40
2022/03/17 06:54:35;;;;;;;13.70;9.83;;;5.90;99.90;;;;;;5053933;28;20843;-41
2022/03/17 06:57:04;;;;;;;12.30;8.60;;;5.90;99.90;;;;;;5054035;28;20472;-41
2022/03/17 06:59:31;;;;;;;14.60;8.60;;;5.90;99.90;;;;;;5053870;28;20477;-41
2022/03/17 07:01:58;;;;;;;13.47;9.77;;;5.90;99.90;;;;;;5053741;28;20491;-41
2022/03/17 07:04:24;;;;;;;15.13;8.70;;;6.00;99.90;;;;;;5099656;22;20529;-43
2022/03/17 07:06:51;;;;;;;19.57;10.13;;;6.10;99.90;;;;;;5033932;28;20481;-43
2022/03/17 07:09:18;;;;;;;16.13;10.97;;;6.20;99.90;;;;;;5033308;28;20525;-43
2022/03/17 07:11:47;;;;;;;16.93;8.63;;;6.20;99.90;;;;;;5033475;28;20489;-43
2022/03/17 07:14:15;;;;;;;14.13;10.53;;;6.20;99.90;;;;;;5034128;28;20485;-41
2022/03/17 07:16:42;;;;;;;19.40;11.80;;;6.40;99.90;;;;;;5033807;28;20493;-41
2022/03/17 07:19:09;;;;;;;14.57;10.40;;;6.50;99.90;;;;;;5033427;28;20485;-41
2022/03/17 07:21:35;;;;;;;16.20;10.67;;;6.50;99.90;;;;;;5033715;28;20906;-41
2022/03/17 07:24:03;;;;;;;24.50;16.20;;;6.60;99.90;;;;;;5033327;28;20462;-41
2022/03/17 07:26:30;;;;;;;21.17;12.50;;;6.50;99.90;;;;;;5032562;28;20525;-41
2022/03/17 07:28:57;;;;;;;18.03;9.47;;;6.50;99.90;;;;;;5033164;28;20889;-41
2022/03/17 07:31:25;;;;;;;20.10;10.57;;;6.50;99.90;;;;;;5033446;28;20938;-41
2022/03/17 07:33:53;;;;;;;19.83;11.77;;;6.40;99.90;;;;;;5033487;28;20463;-41
2022/03/17 07:36:20;;;;;;;15.90;9.20;;;6.30;99.90;;;;;;5033466;28;20728;-41
2022/03/17 07:38:47;;;;;;;20.87;9.00;;;6.30;99.90;;;;;;5033323;28;20446;-41
2022/03/17 07:41:14;;;;;;;21.03;9.60;;;6.40;99.90;;;;;;5032954;28;20442;-41
2022/03/17 07:43:43;;;;;;;17.73;9.27;;;6.30;99.90;;;;;;5032974;28;20465;-41
2022/03/17 07:46:10;;;;;;;26.40;9.47;;;6.30;99.90;;;;;;5033116;28;20482;-41
2022/03/17 07:48:39;;;;;;;13.60;9.77;;;6.30;99.90;;;;;;5033396;28;20868;-41
2022/03/17 07:51:06;;;;;;;15.57;11.47;;;6.20;99.90;;;;;;5033010;28;20871;-41
2022/03/17 07:53:33;;;;;;;12.90;9.97;;;6.40;99.90;;;;;;5032636;28;20490;-41
2022/03/17 07:56:00;;;;;;;13.00;8.80;;;6.50;99.90;;;;;;5032809;28;20905;-41
2022/03/17 07:58:27;;;;;;;18.77;11.50;;;6.60;99.90;;;;;;5033058;28;20454;-41
2022/03/17 08:00:55;;;;;;;14.60;11.47;;;6.70;99.90;;;;;;5032644;28;20442;-41
2022/03/17 08:03:23;;;;;;;18.93;11.53;;;6.70;99.90;;;;;;5032330;28;20474;-42
2022/03/17 08:05:52;;;;;;;16.27;9.47;;;6.80;99.90;;;;;;5032950;28;20597;-41
2022/03/17 08:08:19;;;;;;;14.93;9.20;;;6.70;99.90;;;;;;5033196;28;20450;-41
2022/03/17 08:10:46;;;;;;;18.43;10.20;;;6.70;99.90;;;;;;5032179;28;20477;-41
2022/03/17 08:13:14;;;;;;;14.90;10.70;;;6.80;99.90;;;;;;5032512;28;20541;-41
2022/03/17 08:15:42;;;;;;;15.30;11.10;;;6.70;99.90;;;;;;5032507;28;20483;-42
2022/03/17 08:18:10;;;;;;;15.30;8.47;;;6.80;99.90;;;;;;5032575;28;20530;-41
2022/03/17 08:20:38;;;;;;;17.30;9.80;;;7.00;99.90;;;;;;5032262;28;20473;-41
2022/03/17 08:23:07;;;;;;;15.57;8.23;;;7.20;99.90;;;;;;5031818;28;20447;-41
2022/03/17 08:25:34;;;;;;;20.73;9.70;;;7.40;99.90;;;;;;5032179;28;20565;-41
2022/03/17 08:28:02;;;;;;;20.30;9.73;;;7.30;99.90;;;;;;5032151;28;20482;-41
2022/03/17 08:30:30;;;;;;;21.40;9.27;;;7.40;99.90;;;;;;5032255;28;20446;-41
2022/03/17 08:32:57;;;;;;;22.87;10.03;;;7.40;99.90;;;;;;5032468;28;20489;-41
2022/03/17 08:35:25;;;;;;;14.33;9.47;;;7.40;99.90;;;;;;5032129;28;20458;-41
2022/03/17 08:37:52;;;;;;;16.90;9.57;;;7.40;99.90;;;;;;5032247;28;20492;-41
2022/03/17 08:40:20;;;;;;;22.67;12.27;;;7.40;99.90;;;;;;5031989;28;20519;-41
2022/03/17 08:42:47;;;;;;;25.77;11.17;;;7.40;99.90;;;;;;5031985;28;20940;-41
2022/03/17 08:50:44;;;;;;;21.13;10.37;;;7.70;99.90;;;;;;5031816;28;20421;-41
2022/03/17 08:53:11;;;;;;;14.13;9.73;;;7.80;99.90;;;;;;5031655;28;20540;-41
2022/03/17 08:55:40;;;;;;;14.43;10.67;;;7.90;99.90;;;;;;5031734;28;20975;-41
2022/03/17 08:58:07;;;;;;;19.43;10.90;;;8.00;99.90;;;;;;5032042;28;20481;-41
2022/03/17 09:00:35;;;;;;;18.53;11.43;;;8.00;99.90;;;;;;5031561;28;20489;-41
2022/03/17 09:03:02;;;;;;;14.93;10.30;;;8.10;99.90;;;;;;5031618;28;20473;-41
2022/03/17 09:05:30;;;;;;;14.60;9.60;;;8.20;99.90;;;;;;5031465;28;20734;-42
2022/03/17 09:07:57;;;;;;;19.40;10.60;;;8.20;99.90;;;;;;5030128;28;20446;-41
2022/03/17 09:10:24;;;;;;;19.17;10.47;;;8.30;99.90;;;;;;5030785;28;20478;-41
2022/03/17 09:12:55;;;;;;;24.73;9.97;;;8.40;99.90;;;;;;5031493;28;20947;-41
2022/03/17 09:15:22;;;;;;;19.77;10.00;;;8.60;99.90;;;;;;5031291;28;20553;-41
2022/03/17 09:17:49;;;;;;;16.67;9.90;;;8.60;99.90;;;;;;5031554;28;20469;-41
2022/03/17 09:20:16;;;;;;;25.10;15.13;;;8.70;99.90;;;;;;5031283;28;20529;-41
2022/03/17 09:22:43;;;;;;;30.77;15.07;;;8.70;99.90;;;;;;5031490;28;20474;-41
2022/03/17 09:25:11;;;;;;;24.83;12.90;;;8.70;99.90;;;;;;5031362;28;20556;-42
2022/03/17 09:27:38;;;;;;;19.20;10.60;;;8.70;99.90;;;;;;5031230;28;20488;-41
2022/03/17 09:30:08;;;;;;;25.40;11.13;;;8.80;99.90;;;;;;5031390;28;20553;-41
2022/03/17 09:32:35;;;;;;;16.40;8.80;;;8.80;99.90;;;;;;5031606;28;20469;-42
2022/03/17 09:35:02;;;;;;;26.53;12.80;;;8.80;99.90;;;;;;5033295;28;20990;-41
2022/03/17 09:37:29;;;;;;;29.90;14.70;;;9.00;99.90;;;;;;5035749;28;20454;-41
2022/03/17 09:39:57;;;;;;;31.83;11.70;;;9.10;99.90;;;;;;5034962;28;20470;-41
2022/03/17 09:42:24;;;;;;;24.53;11.30;;;9.10;99.90;;;;;;5035531;28;20450;-41
2022/03/17 09:44:52;;;;;;;23.23;12.10;;;9.10;99.90;;;;;;5035486;28;20556;-41
2022/03/17 09:47:24;;;;;;;37.70;10.83;;;9.20;99.90;;;;;;5035270;28;20449;-42
2022/03/17 09:49:52;;;;;;;36.20;10.47;;;9.30;99.90;;;;;;5035171;28;20529;-42
2022/03/17 09:52:20;;;;;;;28.47;10.57;;;9.40;99.90;;;;;;5035474;28;20922;-42
2022/03/17 09:54:48;;;;;;;24.40;8.47;;;9.40;99.90;;;;;;5035298;28;20488;-42
2022/03/17 09:57:16;;;;;;;28.57;10.10;;;9.60;99.90;;;;;;5035427;28;20469;-42
2022/03/17 09:59:44;;;;;;;27.27;8.90;;;9.60;99.90;;;;;;5034721;28;20540;-41
2022/03/17 10:02:15;;;;;;;25.90;8.87;;;9.70;99.90;;;;;;5034790;28;20439;-42
2022/03/17 10:04:45;;;;;;;29.00;10.23;;;9.60;99.90;;;;;;5035090;28;20749;-41
2022/03/17 10:07:12;;;;;;;23.20;8.60;;;9.70;99.90;;;;;;5033528;28;20576;-41
2022/03/17 10:09:39;;;;;;;26.03;9.40;;;9.70;99.90;;;;;;5033024;28;20457;-41
2022/03/17 10:12:10;;;;;;;21.10;8.73;;;9.60;99.90;;;;;;5033647;28;20485;-41
2022/03/17 10:14:39;;;;;;;28.30;9.90;;;9.70;99.90;;;;;;5033199;28;20466;-42
2022/03/17 10:17:07;;;;;;;22.63;8.63;;;9.90;99.90;;;;;;5033374;28;20466;-42
2022/03/17 10:19:36;;;;;;;27.50;9.20;;;9.90;99.90;;;;;;5032912;28;20489;-41
2022/03/17 10:22:12;;;;;;;22.40;8.80;;;9.70;99.90;;;;;;5034069;28;20862;-42
2022/03/17 10:24:50;;;;;;;28.30;8.57;;;9.70;99.90;;;;;;5034729;28;20465;-42
2022/03/17 10:27:38;;;;;;;26.33;7.73;;;9.70;99.90;;;;;;5034505;28;20474;-42
2022/03/17 10:30:07;;;;;;;22.20;8.40;;;9.70;99.90;;;;;;5034571;28;20865;-42
2022/03/17 10:32:34;;;;;;;26.80;10.90;;;9.80;99.90;;;;;;5035053;28;20438;-42
2022/03/17 10:35:01;;;;;;;23.27;8.67;;;10.00;99.90;;;;;;5034293;28;21007;-42
2022/03/17 10:37:31;;;;;;;26.80;9.93;;;10.10;99.90;;;;;;5034548;28;20532;-42
2022/03/17 10:40:01;;;;;;;25.87;7.90;;;10.20;99.90;;;;;;5033786;28;20442;-42
2022/03/17 10:42:30;;;;;;;31.47;8.23;;;10.30;99.90;;;;;;5034410;28;20519;-42
2022/03/17 10:44:59;;;;;;;43.17;9.10;;;10.30;99.90;;;;;;5033736;28;20545;-42
2022/03/17 10:47:28;;;;;;;22.50;8.00;;;10.40;99.90;;;;;;5033021;28;20478;-42
2022/03/17 10:50:04;;;;;;;33.53;10.37;;;10.60;99.90;;;;;;5032141;28;20944;-42
2022/03/17 10:52:46;;;;;;;32.40;9.43;;;10.70;99.90;;;;;;5032626;28;20815;-42
2022/03/17 10:55:13;;;;;;;25.53;8.67;;;10.80;99.90;;;;;;5032292;28;20500;-42
2022/03/17 10:57:40;;;;;;;36.13;11.20;;;10.80;99.90;;;;;;5032143;28;20995;-42
2022/03/17 11:00:19;;;;;;;23.37;8.10;;;10.80;99.90;;;;;;5032043;28;20666;-42
2022/03/17 11:02:48;;;;;;;35.00;9.70;;;10.80;99.90;;;;;;5033326;28;20503;-42
2022/03/17 11:05:15;;;;;;;31.83;10.00;;;10.80;99.90;;;;;;5033266;28;20899;-42
2022/03/17 11:07:47;;;;;;;35.27;9.53;;;10.80;99.90;;;;;;5033704;28;20962;-42
2022/03/17 11:10:18;;;;;;;36.40;9.43;;;10.80;99.90;;;;;;5033174;28;20970;-42
2022/03/17 11:12:46;;;;;;;36.27;9.87;;;10.80;99.90;;;;;;5034114;28;20453;-42
2022/03/17 11:15:13;;;;;;;32.53;9.40;;;10.90;99.90;;;;;;5033516;28;20493;-42
2022/03/17 11:17:46;;;;;;;31.63;9.90;;;11.00;99.90;;;;;;5033942;28;20442;-42
2022/03/17 11:20:17;;;;;;;36.03;12.30;;;11.00;99.90;;;;;;5033481;28;20446;-42
2022/03/17 11:23:15;;;;;;;29.07;9.27;;;11.10;99.90;;;;;;5032569;28;20535;-42
2022/03/17 11:25:56;;;;;;;32.43;11.83;;;11.10;99.90;;;;;;5031635;28;20478;-42
2022/03/17 11:28:34;;;;;;;39.33;11.20;;;11.20;99.90;;;;;;5031203;28;20978;-42
2022/03/17 11:31:02;;;;;;;42.00;10.83;;;11.20;99.90;;;;;;5029329;28;20565;-42
2022/03/17 11:33:32;;;;;;;43.70;11.53;;;11.30;99.90;;;;;;5031176;28;20497;-42
2022/03/17 11:36:01;;;;;;;39.17;13.73;;;11.40;99.90;;;;;;5031195;28;20435;-42
2022/03/17 11:38:32;;;;;;;39.27;13.43;;;11.50;99.90;;;;;;5032887;28;20438;-42
2022/03/17 11:41:12;;;;;;;40.77;11.60;;;11.50;99.90;;;;;;5032456;28;20438;-42
2022/03/17 11:43:41;;;;;;;42.60;12.97;;;11.60;99.90;;;;;;5030575;28;20967;-42
2022/03/17 11:46:11;;;;;;;32.60;10.40;;;11.70;99.90;;;;;;5032211;28;21034;-42
2022/03/17 11:48:38;;;;;;;39.33;12.60;;;11.70;99.90;;;;;;5033094;28;20477;-42
2022/03/17 11:51:06;;;;;;;43.23;12.77;;;11.70;99.90;;;;;;5033338;28;20474;-42
2022/03/17 11:53:45;;;;;;;39.60;9.93;;;11.80;99.90;;;;;;5031939;28;20498;-42
2022/03/17 11:56:28;;;;;;;40.20;11.83;;;11.80;99.90;;;;;;5031886;28;20517;-42
2022/03/17 11:58:55;;;;;;;39.83;11.53;;;12.10;99.90;;;;;;5032296;28;20449;-42
2022/03/17 12:01:25;;;;;;;40.47;11.53;;;12.10;99.90;;;;;;5032731;28;20478;-42
2022/03/17 12:03:56;;;;;;;43.63;12.90;;;12.00;99.90;;;;;;5032549;28;20473;-43
2022/03/17 12:06:24;;;;;;;47.00;13.27;;;12.00;99.90;;;;;;5032742;28;20808;-42
2022/03/17 12:08:58;;;;;;;54.17;14.20;;;12.00;99.90;;;;;;5031812;28;20529;-42
2022/03/17 12:11:26;;;;;;;48.43;12.43;;;12.00;99.90;;;;;;5032302;28;20488;-42
2022/03/17 12:14:17;;;;;;;53.37;14.17;;;12.00;99.90;;;;;;5032613;28;20878;-42
2022/03/17 12:16:47;;;;;;;43.60;13.30;;;12.00;99.90;;;;;;5032654;28;20442;-42
2022/03/17 12:19:35;;;;;;;61.03;15.50;;;12.10;99.90;;;;;;5032437;28;20457;-42
2022/03/17 12:22:21;;;;;;;51.27;14.33;;;12.10;99.90;;;;;;5032453;28;20474;-42
2022/03/17 12:24:53;;;;;;;49.73;14.53;;;12.20;99.90;;;;;;5032257;28;20465;-42
2022/03/17 12:27:24;;;;;;;48.73;15.13;;;12.20;99.90;;;;;;5032043;28;20573;-42
2022/03/17 12:29:56;;;;;;;51.67;15.27;;;12.20;99.90;;;;;;5031863;28;20541;-42
2022/03/17 12:32:25;;;;;;;47.80;11.80;;;12.20;99.90;;;;;;5032400;28;20447;-42
2022/03/17 12:34:54;;;;;;;49.30;14.57;;;12.30;99.90;;;;;;5032136;28;20759;-42
2022/03/17 12:37:23;;;;;;;50.97;13.27;;;12.30;99.90;;;;;;5032185;28;20470;-42
2022/03/17 12:39:53;;;;;;;58.33;14.77;;;12.30;99.90;;;;;;5031550;28;20861;-42
2022/03/17 12:42:21;;;;;;;43.97;14.30;;;12.40;99.90;;;;;;5032021;28;20469;-42
2022/03/17 12:44:51;;;;;;;50.60;13.23;;;12.50;99.90;;;;;;5031838;28;20462;-42
2022/03/17 12:47:19;;;;;;;48.00;13.87;;;12.40;99.90;;;;;;5031923;28;20482;-42
2022/03/17 12:49:46;;;;;;;28.27;14.30;;;12.40;99.90;;;;;;5031440;28;20865;-42
2022/03/17 12:52:21;;;;;;;63.97;13.40;;;12.40;99.90;;;;;;5031701;28;20489;-42
2022/03/17 12:54:49;;;;;;;39.90;12.13;;;12.50;99.90;;;;;;5031398;28;20841;-42
2022/03/17 12:57:17;;;;;;;43.80;11.60;;;12.40;99.90;;;;;;5031839;28;20470;-42
2022/03/17 12:59:44;;;;;;;47.47;13.80;;;12.40;99.90;;;;;;5029881;28;20481;-42
2022/03/17 13:02:17;;;;;;;42.00;12.17;;;12.40;99.90;;;;;;5029963;28;20477;-42
2022/03/17 13:04:46;;;;;;;45.30;13.00;;;12.30;99.90;;;;;;5031105;28;20482;-44